sensor_id;sensor_type;location;lat;lon;timestamp;pressure;altitude;pressure_sealevel;temperature;humidity
55538;BME280;41383;51.418;7.286;2023-08-31T00:01:47;99090.50;;;16.13;73.06
55538;BME280;41383;51.418;7.286;2023-08-31T00:04:13;99095.66;;;16.06;73.19
55538;BME280;41383;51.418;7.286;2023-08-31T00:06:40;99091.16;;;16.10;72.61
55538;BME280;41383;51.418;7.286;2023-08-31T00:09:06;99092.75;;;16.11;72.42
55538;BME280;41383;51.418;7.286;2023-08-31T00:11:37;99099.56;;;16.05;72.52
55538;BME280;41383;51.418;7.286;2023-08-31T00:14:02;99096.66;;;16.10;72.32
55538;BME280;41383;51.418;7.286;2023-08-31T00:16:28;99097.09;;;16.03;72.20
55538;BME280;41383;51.418;7.286;2023-08-31T00:18:53;99100.50;;;16.09;72.30
55538;BME280;41383;51.418;7.286;2023-08-31T00:21:21;99097.28;;;16.07;72.15
55538;BME280;41383;51.418;7.286;2023-08-31T00:23:47;99096.00;;;16.04;71.91
55538;BME280;41383;51.418;7.286;2023-08-31T00:26:12;99082.06;;;16.01;72.37
55538;BME280;41383;51.418;7.286;2023-08-31T00:28:38;99092.66;;;15.84;72.93
55538;BME280;41383;51.418;7.286;2023-08-31T00:31:04;99091.19;;;15.78;73.74
55538;BME280;41383;51.418;7.286;2023-08-31T00:33:29;99092.84;;;15.88;72.92
55538;BME280;41383;51.418;7.286;2023-08-31T00:35:56;99085.75;;;15.96;72.57
55538;BME280;41383;51.418;7.286;2023-08-31T00:38:21;99088.16;;;15.97;72.09
55538;BME280;41383;51.418;7.286;2023-08-31T00:40:46;99094.69;;;16.02;72.33
55538;BME280;41383;51.418;7.286;2023-08-31T00:43:13;99098.34;;;15.97;72.72
55538;BME280;41383;51.418;7.286;2023-08-31T00:45:40;99100.59;;;15.95;72.81
55538;BME280;41383;51.418;7.286;2023-08-31T00:48:06;99101.41;;;15.95;72.51
55538;BME280;41383;51.418;7.286;2023-08-31T00:50:32;99098.34;;;15.97;72.23
55538;BME280;41383;51.418;7.286;2023-08-31T00:52:57;99110.31;;;16.01;72.08
55538;BME280;41383;51.418;7.286;2023-08-31T00:55:23;99101.09;;;15.97;71.92
55538;BME280;41383;51.418;7.286;2023-08-31T00:57:48;99093.66;;;15.97;72.50
55538;BME280;41383;51.418;7.286;2023-08-31T01:00:14;99098.34;;;15.97;72.44
55538;BME280;41383;51.418;7.286;2023-08-31T01:02:59;99101.06;;;15.88;72.17
55538;BME280;41383;51.418;7.286;2023-08-31T01:05:50;99096.97;;;15.76;72.06
55538;BME280;41383;51.418;7.286;2023-08-31T01:11:30;99104.22;;;15.72;72.21
55538;BME280;41383;51.418;7.286;2023-08-31T01:14:11;99099.59;;;15.82;72.39
55538;BME280;41383;51.418;7.286;2023-08-31T01:16:39;99103.94;;;15.83;72.11
55538;BME280;41383;51.418;7.286;2023-08-31T01:19:21;99102.66;;;15.80;72.39
55538;BME280;41383;51.418;7.286;2023-08-31T01:21:51;99106.03;;;15.77;72.33
55538;BME280;41383;51.418;7.286;2023-08-31T01:24:19;99104.53;;;15.71;72.33
55538;BME280;41383;51.418;7.286;2023-08-31T01:26:45;99101.06;;;15.56;72.62
55538;BME280;41383;51.418;7.286;2023-08-31T01:29:12;99098.38;;;15.65;72.54
55538;BME280;41383;51.418;7.286;2023-08-31T01:31:43;99103.38;;;15.63;72.22
55538;BME280;41383;51.418;7.286;2023-08-31T01:34:10;99102.38;;;15.59;72.64
55538;BME280;41383;51.418;7.286;2023-08-31T01:36:38;99095.56;;;15.56;72.45
55538;BME280;41383;51.418;7.286;2023-08-31T01:39:22;99092.38;;;15.63;72.39
55538;BME280;41383;51.418;7.286;2023-08-31T01:41:55;99088.16;;;15.57;72.46
55538;BME280;41383;51.418;7.286;2023-08-31T01:44:21;99091.53;;;15.54;72.77
55538;BME280;41383;51.418;7.286;2023-08-31T01:46:50;99091.88;;;15.61;72.67
55538;BME280;41383;51.418;7.286;2023-08-31T01:49:15;99092.38;;;15.63;72.35
55538;BME280;41383;51.418;7.286;2023-08-31T01:51:41;99098.47;;;15.51;72.53
55538;BME280;41383;51.418;7.286;2023-08-31T01:54:06;99088.56;;;15.18;73.47
55538;BME280;41383;51.418;7.286;2023-08-31T01:56:31;99099.16;;;15.34;73.75
55538;BME280;41383;51.418;7.286;2023-08-31T01:58:57;99094.41;;;15.48;73.36
55538;BME280;41383;51.418;7.286;2023-08-31T02:01:22;99100.28;;;15.56;72.81
55538;BME280;41383;51.418;7.286;2023-08-31T02:03:47;99106.09;;;15.31;72.77
55538;BME280;41383;51.418;7.286;2023-08-31T02:06:13;99100.78;;;15.35;73.54
55538;BME280;41383;51.418;7.286;2023-08-31T02:08:38;99106.53;;;15.24;73.27
55538;BME280;41383;51.418;7.286;2023-08-31T02:11:03;99107.03;;;15.26;73.76
55538;BME280;41383;51.418;7.286;2023-08-31T02:13:30;99104.94;;;15.23;73.66
55538;BME280;41383;51.418;7.286;2023-08-31T02:15:55;99104.84;;;15.14;73.78
55538;BME280;41383;51.418;7.286;2023-08-31T02:18:20;99110.28;;;15.05;73.25
55538;BME280;41383;51.418;7.286;2023-08-31T02:20:45;99107.53;;;15.05;73.99
55538;BME280;41383;51.418;7.286;2023-08-31T02:23:11;99105.97;;;15.13;73.34
55538;BME280;41383;51.418;7.286;2023-08-31T02:25:37;99105.19;;;15.13;73.33
55538;BME280;41383;51.418;7.286;2023-08-31T02:28:02;99108.22;;;15.11;73.68
55538;BME280;41383;51.418;7.286;2023-08-31T02:30:28;99109.28;;;15.24;73.33
55538;BME280;41383;51.418;7.286;2023-08-31T02:32:53;99116.19;;;15.22;72.86
55538;BME280;41383;51.418;7.286;2023-08-31T02:35:19;99123.25;;;15.14;73.60
55538;BME280;41383;51.418;7.286;2023-08-31T02:37:44;99118.25;;;15.16;73.83
55538;BME280;41383;51.418;7.286;2023-08-31T02:40:10;99120.59;;;15.23;73.63
55538;BME280;41383;51.418;7.286;2023-08-31T02:42:35;99116.81;;;14.96;73.79
55538;BME280;41383;51.418;7.286;2023-08-31T02:45:00;99117.13;;;14.94;74.99
55538;BME280;41383;51.418;7.286;2023-08-31T02:47:26;99112.50;;;15.03;74.08
55538;BME280;41383;51.418;7.286;2023-08-31T02:49:51;99107.25;;;14.93;74.49
55538;BME280;41383;51.418;7.286;2023-08-31T02:52:16;99121.75;;;14.85;74.01
55538;BME280;41383;51.418;7.286;2023-08-31T02:54:42;99124.22;;;14.95;74.26
55538;BME280;41383;51.418;7.286;2023-08-31T02:57:07;99110.81;;;14.93;74.39
55538;BME280;41383;51.418;7.286;2023-08-31T02:59:32;99109.72;;;14.94;74.34
55538;BME280;41383;51.418;7.286;2023-08-31T03:02:03;99110.78;;;15.08;73.83
55538;BME280;41383;51.418;7.286;2023-08-31T03:04:29;99107.47;;;15.20;73.19
55538;BME280;41383;51.418;7.286;2023-08-31T03:06:54;99117.16;;;15.17;72.86
55538;BME280;41383;51.418;7.286;2023-08-31T03:09:19;99120.81;;;15.12;72.82
55538;BME280;41383;51.418;7.286;2023-08-31T03:11:45;99116.66;;;15.15;72.96
55538;BME280;41383;51.418;7.286;2023-08-31T03:14:11;99110.09;;;15.02;73.07
55538;BME280;41383;51.418;7.286;2023-08-31T03:16:36;99115.00;;;14.91;73.63
55538;BME280;41383;51.418;7.286;2023-08-31T03:19:01;99119.28;;;14.83;74.22
55538;BME280;41383;51.418;7.286;2023-08-31T03:21:26;99128.03;;;14.85;74.08
55538;BME280;41383;51.418;7.286;2023-08-31T03:23:52;99122.13;;;14.78;74.83
55538;BME280;41383;51.418;7.286;2023-08-31T03:26:17;99123.63;;;14.98;74.09
55538;BME280;41383;51.418;7.286;2023-08-31T03:28:42;99128.03;;;14.71;74.92
55538;BME280;41383;51.418;7.286;2023-08-31T03:31:08;99133.91;;;14.92;74.50
55538;BME280;41383;51.418;7.286;2023-08-31T03:33:33;99129.22;;;14.93;74.32
55538;BME280;41383;51.418;7.286;2023-08-31T03:36:05;99131.84;;;14.98;74.08
55538;BME280;41383;51.418;7.286;2023-08-31T03:38:31;99128.19;;;15.03;74.19
55538;BME280;41383;51.418;7.286;2023-08-31T03:40:57;99124.13;;;15.00;73.78
55538;BME280;41383;51.418;7.286;2023-08-31T03:43:23;99129.84;;;14.90;74.18
55538;BME280;41383;51.418;7.286;2023-08-31T03:45:48;99137.56;;;14.88;74.48
55538;BME280;41383;51.418;7.286;2023-08-31T03:48:14;99133.78;;;14.98;74.15
55538;BME280;41383;51.418;7.286;2023-08-31T03:50:39;99131.84;;;14.98;74.61
55538;BME280;41383;51.418;7.286;2023-08-31T03:53:05;99134.47;;;15.03;73.83
55538;BME280;41383;51.418;7.286;2023-08-31T03:55:30;99130.22;;;14.97;73.97
55538;BME280;41383;51.418;7.286;2023-08-31T03:57:55;99132.72;;;15.08;73.78
55538;BME280;41383;51.418;7.286;2023-08-31T04:00:20;99127.97;;;14.99;73.75
55538;BME280;41383;51.418;7.286;2023-08-31T04:02:46;99132.72;;;15.08;73.86
55538;BME280;41383;51.418;7.286;2023-08-31T04:05:11;99133.69;;;15.03;73.90
55538;BME280;41383;51.418;7.286;2023-08-31T04:07:36;99134.97;;;15.05;74.12
55538;BME280;41383;51.418;7.286;2023-08-31T04:10:03;99142.84;;;14.98;73.81
55538;BME280;41383;51.418;7.286;2023-08-31T04:12:29;99149.97;;;14.85;74.74
55538;BME280;41383;51.418;7.286;2023-08-31T04:14:55;99155.19;;;14.87;74.59
55538;BME280;41383;51.418;7.286;2023-08-31T04:17:21;99150.88;;;14.80;74.76
55538;BME280;41383;51.418;7.286;2023-08-31T04:19:46;99160.16;;;14.85;75.29
55538;BME280;41383;51.418;7.286;2023-08-31T04:22:11;99158.91;;;14.91;75.22
55538;BME280;41383;51.418;7.286;2023-08-31T04:24:36;99158.44;;;14.89;75.05
55538;BME280;41383;51.418;7.286;2023-08-31T04:27:02;99163.16;;;14.97;74.77
55538;BME280;41383;51.418;7.286;2023-08-31T04:29:27;99160.16;;;14.70;74.71
55538;BME280;41383;51.418;7.286;2023-08-31T04:31:52;99158.72;;;14.73;75.56
55538;BME280;41383;51.418;7.286;2023-08-31T04:34:17;99155.69;;;14.89;75.30
55538;BME280;41383;51.418;7.286;2023-08-31T04:36:43;99156.06;;;14.96;74.69
55538;BME280;41383;51.418;7.286;2023-08-31T04:39:08;99160.13;;;14.99;74.68
55538;BME280;41383;51.418;7.286;2023-08-31T04:41:33;99162.47;;;14.77;74.88
55538;BME280;41383;51.418;7.286;2023-08-31T04:43:58;99160.34;;;14.74;75.24
55538;BME280;41383;51.418;7.286;2023-08-31T04:46:24;99157.91;;;14.58;75.59
55538;BME280;41383;51.418;7.286;2023-08-31T04:48:49;99156.06;;;14.82;75.19
55538;BME280;41383;51.418;7.286;2023-08-31T04:51:31;99164.38;;;14.91;74.16
55538;BME280;41383;51.418;7.286;2023-08-31T04:53:57;99158.53;;;14.84;74.06
55538;BME280;41383;51.418;7.286;2023-08-31T04:56:23;99159.13;;;14.80;74.67
55538;BME280;41383;51.418;7.286;2023-08-31T04:58:48;99171.13;;;14.85;74.30
55538;BME280;41383;51.418;7.286;2023-08-31T05:01:14;99171.31;;;14.88;74.51
55538;BME280;41383;51.418;7.286;2023-08-31T05:03:39;99177.19;;;14.96;73.55
55538;BME280;41383;51.418;7.286;2023-08-31T05:06:04;99178.19;;;15.00;73.87
55538;BME280;41383;51.418;7.286;2023-08-31T05:08:30;99180.16;;;14.85;74.09
55538;BME280;41383;51.418;7.286;2023-08-31T05:10:55;99179.75;;;14.92;74.29
55538;BME280;41383;51.418;7.286;2023-08-31T05:13:20;99195.69;;;15.04;73.92
55538;BME280;41383;51.418;7.286;2023-08-31T05:15:46;99192.00;;;15.09;73.48
55538;BME280;41383;51.418;7.286;2023-08-31T05:18:11;99195.72;;;14.90;74.35
55538;BME280;41383;51.418;7.286;2023-08-31T05:20:36;99197.03;;;14.92;74.46
55538;BME280;41383;51.418;7.286;2023-08-31T05:23:01;99203.44;;;14.88;74.45
55538;BME280;41383;51.418;7.286;2023-08-31T05:25:27;99215.03;;;14.85;74.97
55538;BME280;41383;51.418;7.286;2023-08-31T05:27:52;99209.75;;;14.88;74.91
55538;BME280;41383;51.418;7.286;2023-08-31T05:30:17;99223.16;;;14.90;74.82
55538;BME280;41383;51.418;7.286;2023-08-31T05:32:42;99224.97;;;14.80;75.44
55538;BME280;41383;51.418;7.286;2023-08-31T05:35:08;99210.94;;;14.96;75.25
55538;BME280;41383;51.418;7.286;2023-08-31T05:37:33;99218.47;;;14.76;75.50
55538;BME280;41383;51.418;7.286;2023-08-31T05:40:00;99221.31;;;14.85;75.72
55538;BME280;41383;51.418;7.286;2023-08-31T05:42:26;99217.84;;;14.79;75.78
55538;BME280;41383;51.418;7.286;2023-08-31T05:44:51;99236.06;;;14.89;75.84
55538;BME280;41383;51.418;7.286;2023-08-31T05:47:16;99231.19;;;14.86;76.07
55538;BME280;41383;51.418;7.286;2023-08-31T05:49:42;99232.97;;;14.77;75.85
55538;BME280;41383;51.418;7.286;2023-08-31T05:52:07;99234.63;;;14.64;76.40
55538;BME280;41383;51.418;7.286;2023-08-31T05:54:33;99237.78;;;14.85;76.78
55538;BME280;41383;51.418;7.286;2023-08-31T05:56:58;99232.91;;;14.82;76.59
55538;BME280;41383;51.418;7.286;2023-08-31T05:59:24;99248.25;;;14.83;76.89
55538;BME280;41383;51.418;7.286;2023-08-31T06:01:49;99244.47;;;14.93;76.16
55538;BME280;41383;51.418;7.286;2023-08-31T06:04:14;99249.47;;;14.91;76.82
55538;BME280;41383;51.418;7.286;2023-08-31T06:06:40;99249.47;;;15.05;76.67
55538;BME280;41383;51.418;7.286;2023-08-31T06:09:05;99246.50;;;15.01;76.47
55538;BME280;41383;51.418;7.286;2023-08-31T06:11:32;99242.81;;;15.20;75.98
55538;BME280;41383;51.418;7.286;2023-08-31T06:13:57;99252.63;;;14.98;76.28
55538;BME280;41383;51.418;7.286;2023-08-31T06:16:22;99246.63;;;14.96;76.20
55538;BME280;41383;51.418;7.286;2023-08-31T06:18:48;99248.03;;;15.08;76.07
55538;BME280;41383;51.418;7.286;2023-08-31T06:21:14;99256.44;;;15.25;75.44
55538;BME280;41383;51.418;7.286;2023-08-31T06:23:39;99253.06;;;15.28;75.53
55538;BME280;41383;51.418;7.286;2023-08-31T06:26:05;99254.44;;;15.17;75.37
55538;BME280;41383;51.418;7.286;2023-08-31T06:28:30;99255.03;;;15.14;75.58
55538;BME280;41383;51.418;7.286;2023-08-31T06:30:55;99263.97;;;15.20;75.72
55538;BME280;41383;51.418;7.286;2023-08-31T06:33:20;99248.63;;;15.19;75.72
55538;BME280;41383;51.418;7.286;2023-08-31T06:35:46;99267.03;;;15.18;75.92
55538;BME280;41383;51.418;7.286;2023-08-31T06:38:17;99267.34;;;15.02;75.97
55538;BME280;41383;51.418;7.286;2023-08-31T06:40:42;99274.16;;;15.19;76.30
55538;BME280;41383;51.418;7.286;2023-08-31T06:43:08;99274.69;;;15.07;76.26
55538;BME280;41383;51.418;7.286;2023-08-31T06:45:34;99274.88;;;15.11;76.06
55538;BME280;41383;51.418;7.286;2023-08-31T06:47:59;99270.91;;;15.17;76.27
55538;BME280;41383;51.418;7.286;2023-08-31T06:50:24;99274.94;;;15.20;75.36
55538;BME280;41383;51.418;7.286;2023-08-31T06:52:50;99270.28;;;15.20;75.86
55538;BME280;41383;51.418;7.286;2023-08-31T06:55:15;99269.38;;;15.11;75.99
55538;BME280;41383;51.418;7.286;2023-08-31T06:57:40;99269.38;;;15.11;76.48
55538;BME280;41383;51.418;7.286;2023-08-31T07:00:07;99268.84;;;15.23;76.42
55538;BME280;41383;51.418;7.286;2023-08-31T07:02:33;99270.38;;;15.29;75.75
55538;BME280;41383;51.418;7.286;2023-08-31T07:05:00;99279.53;;;15.24;76.10
55538;BME280;41383;51.418;7.286;2023-08-31T07:07:25;99275.66;;;15.25;75.91
55538;BME280;41383;51.418;7.286;2023-08-31T07:09:50;99276.59;;;15.21;76.50
55538;BME280;41383;51.418;7.286;2023-08-31T07:12:16;99272.91;;;15.25;76.70
55538;BME280;41383;51.418;7.286;2023-08-31T07:14:41;99280.41;;;15.34;75.88
55538;BME280;41383;51.418;7.286;2023-08-31T07:17:06;99279.38;;;15.44;75.77
55538;BME280;41383;51.418;7.286;2023-08-31T07:19:35;99283.25;;;15.43;75.93
55538;BME280;41383;51.418;7.286;2023-08-31T07:22:01;99278.97;;;15.36;75.98
55538;BME280;41383;51.418;7.286;2023-08-31T07:24:26;99274.50;;;15.40;75.97
55538;BME280;41383;51.418;7.286;2023-08-31T07:26:51;99281.00;;;15.45;76.31
55538;BME280;41383;51.418;7.286;2023-08-31T07:29:17;99274.44;;;15.55;75.61
55538;BME280;41383;51.418;7.286;2023-08-31T07:31:42;99268.22;;;15.63;75.89
55538;BME280;41383;51.418;7.286;2023-08-31T07:34:07;99279.91;;;15.69;75.58
55538;BME280;41383;51.418;7.286;2023-08-31T07:36:33;99278.53;;;15.80;75.07
55538;BME280;41383;51.418;7.286;2023-08-31T07:38:58;99283.72;;;15.82;74.72
55538;BME280;41383;51.418;7.286;2023-08-31T07:41:23;99285.22;;;15.88;74.53
55538;BME280;41383;51.418;7.286;2023-08-31T07:43:49;99282.66;;;15.92;74.29
55538;BME280;41383;51.418;7.286;2023-08-31T07:46:15;99289.88;;;16.02;74.23
55538;BME280;41383;51.418;7.286;2023-08-31T07:48:41;99289.88;;;16.02;74.10
55538;BME280;41383;51.418;7.286;2023-08-31T07:51:07;99292.38;;;16.12;74.29
55538;BME280;41383;51.418;7.286;2023-08-31T07:53:33;99288.78;;;16.12;74.48
55538;BME280;41383;51.418;7.286;2023-08-31T07:55:58;99285.97;;;16.26;73.69
55538;BME280;41383;51.418;7.286;2023-08-31T07:58:23;99287.44;;;16.23;73.19
55538;BME280;41383;51.418;7.286;2023-08-31T08:00:52;99300.22;;;16.28;73.60
55538;BME280;41383;51.418;7.286;2023-08-31T08:03:18;99292.78;;;16.28;73.45
55538;BME280;41383;51.418;7.286;2023-08-31T08:05:43;99306.97;;;16.21;72.81
55538;BME280;41383;51.418;7.286;2023-08-31T08:08:09;99306.19;;;16.21;72.61
55538;BME280;41383;51.418;7.286;2023-08-31T08:10:34;99304.84;;;16.18;72.95
55538;BME280;41383;51.418;7.286;2023-08-31T08:12:59;99314.09;;;16.22;72.97
55538;BME280;41383;51.418;7.286;2023-08-31T08:15:25;99304.09;;;16.27;72.04
55538;BME280;41383;51.418;7.286;2023-08-31T08:17:50;99310.84;;;16.20;72.32
55538;BME280;41383;51.418;7.286;2023-08-31T08:20:16;99323.22;;;16.32;72.54
55538;BME280;41383;51.418;7.286;2023-08-31T08:22:41;99319.69;;;16.40;72.14
55538;BME280;41383;51.418;7.286;2023-08-31T08:25:06;99323.94;;;16.47;71.98
55538;BME280;41383;51.418;7.286;2023-08-31T08:27:32;99316.19;;;16.49;72.24
55538;BME280;41383;51.418;7.286;2023-08-31T08:30:02;99321.41;;;16.59;70.94
55538;BME280;41383;51.418;7.286;2023-08-31T08:32:27;99314.94;;;16.55;70.61
55538;BME280;41383;51.418;7.286;2023-08-31T08:34:52;99319.78;;;16.58;69.44
55538;BME280;41383;51.418;7.286;2023-08-31T08:37:19;99324.84;;;16.65;69.75
55538;BME280;41383;51.418;7.286;2023-08-31T08:39:48;99318.06;;;16.71;69.79
55538;BME280;41383;51.418;7.286;2023-08-31T08:42:13;99321.16;;;16.78;70.33
55538;BME280;41383;51.418;7.286;2023-08-31T08:44:40;99325.06;;;16.77;69.50
55538;BME280;41383;51.418;7.286;2023-08-31T08:47:06;99332.84;;;16.84;69.70
55538;BME280;41383;51.418;7.286;2023-08-31T08:49:33;99329.16;;;16.89;70.16
55538;BME280;41383;51.418;7.286;2023-08-31T08:51:59;99322.38;;;16.95;70.11
55538;BME280;41383;51.418;7.286;2023-08-31T08:54:24;99327.88;;;16.95;69.64
55538;BME280;41383;51.418;7.286;2023-08-31T08:56:50;99325.78;;;17.01;69.86
55538;BME280;41383;51.418;7.286;2023-08-31T08:59:16;99329.81;;;16.95;69.99
55538;BME280;41383;51.418;7.286;2023-08-31T09:01:42;99320.94;;;16.98;69.78
55538;BME280;41383;51.418;7.286;2023-08-31T09:04:09;99327.25;;;17.07;70.22
55538;BME280;41383;51.418;7.286;2023-08-31T09:06:34;99323.75;;;17.15;69.90
55538;BME280;41383;51.418;7.286;2023-08-31T09:09:00;99327.00;;;17.18;70.01
55538;BME280;41383;51.418;7.286;2023-08-31T09:11:26;99326.38;;;17.30;69.98
55538;BME280;41383;51.418;7.286;2023-08-31T09:13:52;99328.16;;;17.34;69.56
55538;BME280;41383;51.418;7.286;2023-08-31T09:16:29;99331.41;;;17.36;69.22
55538;BME280;41383;51.418;7.286;2023-08-31T09:18:56;99333.34;;;17.36;69.19
55538;BME280;41383;51.418;7.286;2023-08-31T09:21:22;99332.69;;;17.30;68.84
55538;BME280;41383;51.418;7.286;2023-08-31T09:23:58;99335.78;;;17.29;68.76
55538;BME280;41383;51.418;7.286;2023-08-31T09:26:23;99330.56;;;17.27;69.25
55538;BME280;41383;51.418;7.286;2023-08-31T09:28:49;99325.41;;;17.43;69.41
55538;BME280;41383;51.418;7.286;2023-08-31T09:31:14;99330.47;;;17.50;68.07
55538;BME280;41383;51.418;7.286;2023-08-31T09:33:51;99334.66;;;17.38;66.99
55538;BME280;41383;51.418;7.286;2023-08-31T09:36:17;99331.75;;;17.44;67.52
55538;BME280;41383;51.418;7.286;2023-08-31T09:38:44;99336.16;;;17.62;67.47
55538;BME280;41383;51.418;7.286;2023-08-31T09:41:09;99336.94;;;17.72;66.71
55538;BME280;41383;51.418;7.286;2023-08-31T09:43:35;99342.97;;;17.83;66.79
55538;BME280;41383;51.418;7.286;2023-08-31T09:46:02;99336.31;;;17.93;66.46
55538;BME280;41383;51.418;7.286;2023-08-31T09:48:28;99335.34;;;17.97;66.55
55538;BME280;41383;51.418;7.286;2023-08-31T09:50:55;99335.00;;;17.99;65.61
55538;BME280;41383;51.418;7.286;2023-08-31T09:53:20;99337.09;;;18.02;66.48
55538;BME280;41383;51.418;7.286;2023-08-31T09:55:47;99344.06;;;18.08;66.11
55538;BME280;41383;51.418;7.286;2023-08-31T09:58:17;99344.06;;;18.08;66.02
55538;BME280;41383;51.418;7.286;2023-08-31T10:00:43;99352.69;;;17.98;64.06
55538;BME280;41383;51.418;7.286;2023-08-31T10:03:09;99339.06;;;18.02;63.98
55538;BME280;41383;51.418;7.286;2023-08-31T10:05:39;99346.69;;;17.87;63.64
55538;BME280;41383;51.418;7.286;2023-08-31T10:08:05;99350.09;;;17.93;62.88
55538;BME280;41383;51.418;7.286;2023-08-31T10:10:33;99351.25;;;17.92;64.25
55538;BME280;41383;51.418;7.286;2023-08-31T10:12:59;99344.75;;;17.88;63.40
55538;BME280;41383;51.418;7.286;2023-08-31T10:15:26;99344.56;;;17.84;61.64
55538;BME280;41383;51.418;7.286;2023-08-31T10:17:56;99349.59;;;17.82;61.73
55538;BME280;41383;51.418;7.286;2023-08-31T10:20:21;99356.09;;;17.95;61.05
55538;BME280;41383;51.418;7.286;2023-08-31T10:22:47;99349.28;;;18.01;61.42
55538;BME280;41383;51.418;7.286;2023-08-31T10:25:12;99347.31;;;18.11;61.78
55538;BME280;41383;51.418;7.286;2023-08-31T10:27:42;99347.84;;;18.22;60.74
55538;BME280;41383;51.418;7.286;2023-08-31T10:30:29;99354.47;;;18.29;59.92
55538;BME280;41383;51.418;7.286;2023-08-31T10:36:02;99336.47;;;18.32;60.95
55538;BME280;41383;51.418;7.286;2023-08-31T10:38:28;99349.63;;;18.26;58.63
55538;BME280;41383;51.418;7.286;2023-08-31T10:41:02;99338.25;;;18.19;59.31
55538;BME280;41383;51.418;7.286;2023-08-31T10:43:43;99330.63;;;18.25;58.54
55538;BME280;41383;51.418;7.286;2023-08-31T10:46:30;99333.50;;;18.37;59.97
55538;BME280;41383;51.418;7.286;2023-08-31T10:49:14;99325.84;;;18.52;60.02
55538;BME280;41383;51.418;7.286;2023-08-31T10:51:42;99327.63;;;18.57;59.81
55538;BME280;41383;51.418;7.286;2023-08-31T10:54:30;99324.41;;;18.37;57.68
55538;BME280;41383;51.418;7.286;2023-08-31T10:59:50;99328.81;;;18.02;56.21
55538;BME280;41383;51.418;7.286;2023-08-31T11:02:35;99328.19;;;18.05;56.49
55538;BME280;41383;51.418;7.286;2023-08-31T11:05:15;99324.94;;;18.21;57.98
55538;BME280;41383;51.418;7.286;2023-08-31T11:07:47;99324.94;;;18.21;57.58
55538;BME280;41383;51.418;7.286;2023-08-31T11:12:48;99326.53;;;18.49;57.77
55538;BME280;41383;51.418;7.286;2023-08-31T11:15:16;99324.53;;;18.58;57.70
55538;BME280;41383;51.418;7.286;2023-08-31T11:17:42;99322.06;;;18.65;57.69
55538;BME280;41383;51.418;7.286;2023-08-31T11:20:12;99318.47;;;18.74;58.50
55538;BME280;41383;51.418;7.286;2023-08-31T11:22:41;99320.69;;;18.89;58.21
55538;BME280;41383;51.418;7.286;2023-08-31T11:25:09;99315.09;;;18.98;57.92
55538;BME280;41383;51.418;7.286;2023-08-31T11:27:34;99320.13;;;19.05;57.12
55538;BME280;41383;51.418;7.286;2023-08-31T11:30:00;99308.06;;;19.10;57.29
55538;BME280;41383;51.418;7.286;2023-08-31T11:32:25;99322.84;;;19.14;57.28
55538;BME280;41383;51.418;7.286;2023-08-31T11:34:50;99318.91;;;19.24;56.88
55538;BME280;41383;51.418;7.286;2023-08-31T11:37:16;99314.47;;;19.32;56.46
55538;BME280;41383;51.418;7.286;2023-08-31T11:39:52;99311.97;;;19.39;56.82
55538;BME280;41383;51.418;7.286;2023-08-31T11:42:19;99316.38;;;19.40;56.87
55538;BME280;41383;51.418;7.286;2023-08-31T11:44:49;99317.16;;;19.41;56.92
55538;BME280;41383;51.418;7.286;2023-08-31T11:47:15;99319.19;;;19.53;57.77
55538;BME280;41383;51.418;7.286;2023-08-31T11:49:45;99311.84;;;19.57;57.88
55538;BME280;41383;51.418;7.286;2023-08-31T11:52:12;99316.09;;;19.54;57.71
55538;BME280;41383;51.418;7.286;2023-08-31T11:54:38;99328.28;;;19.53;57.98
55538;BME280;41383;51.418;7.286;2023-08-31T11:57:07;99317.44;;;19.48;57.85
55538;BME280;41383;51.418;7.286;2023-08-31T11:59:38;99312.44;;;19.41;58.40
55538;BME280;41383;51.418;7.286;2023-08-31T12:02:08;99318.00;;;19.32;57.56
55538;BME280;41383;51.418;7.286;2023-08-31T12:04:44;99315.94;;;19.29;57.98
55538;BME280;41383;51.418;7.286;2023-08-31T12:07:09;99314.13;;;19.33;57.99
55538;BME280;41383;51.418;7.286;2023-08-31T12:09:35;99312.44;;;19.41;57.01
55538;BME280;41383;51.418;7.286;2023-08-31T12:12:00;99313.88;;;19.47;56.11
55538;BME280;41383;51.418;7.286;2023-08-31T12:14:27;99313.13;;;19.59;56.51
55538;BME280;41383;51.418;7.286;2023-08-31T12:17:06;99320.41;;;19.64;56.39
55538;BME280;41383;51.418;7.286;2023-08-31T12:19:32;99312.59;;;19.66;56.61
55538;BME280;41383;51.418;7.286;2023-08-31T12:21:59;99324.00;;;19.65;56.88
55538;BME280;41383;51.418;7.286;2023-08-31T12:24:24;99331.81;;;19.63;56.75
55538;BME280;41383;51.418;7.286;2023-08-31T12:26:50;99324.84;;;19.35;54.71
55538;BME280;41383;51.418;7.286;2023-08-31T12:29:16;99320.25;;;19.18;54.95
55538;BME280;41383;51.418;7.286;2023-08-31T12:31:41;99327.22;;;19.15;55.51
55538;BME280;41383;51.418;7.286;2023-08-31T12:34:06;99328.84;;;19.16;55.49
55538;BME280;41383;51.418;7.286;2023-08-31T12:36:35;99330.16;;;19.10;55.81
55538;BME280;41383;51.418;7.286;2023-08-31T12:39:06;99337.59;;;19.18;56.48
55538;BME280;41383;51.418;7.286;2023-08-31T12:41:34;99341.66;;;19.12;56.99
55538;BME280;41383;51.418;7.286;2023-08-31T12:44:00;99341.13;;;18.97;58.21
55538;BME280;41383;51.418;7.286;2023-08-31T12:46:25;99329.72;;;18.99;56.95
55538;BME280;41383;51.418;7.286;2023-08-31T12:48:51;99338.47;;;19.10;57.26
55538;BME280;41383;51.418;7.286;2023-08-31T12:51:18;99332.72;;;19.24;57.06
55538;BME280;41383;51.418;7.286;2023-08-31T12:53:43;99339.13;;;19.37;57.38
55538;BME280;41383;51.418;7.286;2023-08-31T12:56:08;99344.75;;;19.50;57.26
55538;BME280;41383;51.418;7.286;2023-08-31T12:58:33;99338.34;;;19.58;56.09
55538;BME280;41383;51.418;7.286;2023-08-31T13:00:59;99339.00;;;19.55;55.63
55538;BME280;41383;51.418;7.286;2023-08-31T13:03:25;99339.47;;;19.57;55.27
55538;BME280;41383;51.418;7.286;2023-08-31T13:05:50;99341.44;;;19.56;55.27
55538;BME280;41383;51.418;7.286;2023-08-31T13:08:16;99338.81;;;19.60;55.29
55538;BME280;41383;51.418;7.286;2023-08-31T13:10:41;99346.25;;;19.68;55.86